Time;durP1;ratioP1;P1;durP2;ratioP2;P2;SDS_P1;SDS_P2;PMS_P1;PMS_P2;Temp;Humidity;BMP_temperature;BMP_pressure;BME280_temperature;BME280_humidity;BME280_pressure;Samples;Min_cycle;Max_cycle;Signal;HPM_P1;HPM_P2
2021/09/14 00:02:24;;;;;;;43.83;25.38;;;;;;;13.60;100.00;100907.72;5031942;28;20041;-65
2021/09/14 00:04:53;;;;;;;49.95;26.40;;;;;;;13.63;100.00;100906.53;5029091;28;20352;-65
2021/09/14 00:07:20;;;;;;;46.88;25.52;;;;;;;13.60;100.00;100902.34;5034472;28;20516;-65
2021/09/14 00:09:48;;;;;;;49.83;27.20;;;;;;;13.57;100.00;100905.41;5028147;28;20456;-65
2021/09/14 00:12:16;;;;;;;46.75;26.55;;;;;;;13.53;100.00;100907.59;5029508;28;20053;-65
2021/09/14 00:14:44;;;;;;;53.53;27.30;;;;;;;13.51;100.00;100904.28;5030226;28;20050;-65
2021/09/14 00:17:14;;;;;;;49.25;27.75;;;;;;;13.51;100.00;100900.75;5029625;28;20380;-65
2021/09/14 00:19:42;;;;;;;49.33;25.15;;;;;;;13.50;100.00;100901.78;5029723;28;20049;-65
2021/09/14 00:22:10;;;;;;;48.40;26.42;;;;;;;13.45;100.00;100901.47;5032194;28;20046;-65
2021/09/14 00:24:38;;;;;;;49.15;27.00;;;;;;;13.40;100.00;100902.84;5028762;28;20086;-65
2021/09/14 00:27:06;;;;;;;55.25;27.92;;;;;;;13.33;100.00;100896.50;5028676;28;20045;-65
2021/09/14 00:29:34;;;;;;;54.03;27.58;;;;;;;13.26;100.00;100901.75;5025628;28;20046;-65
2021/09/14 00:32:02;;;;;;;53.83;28.08;;;;;;;13.22;100.00;100897.75;5032131;28;20096;-65
2021/09/14 00:34:31;;;;;;;53.70;27.27;;;;;;;13.25;100.00;100893.88;5028263;28;20327;-65
2021/09/14 00:36:59;;;;;;;52.80;27.20;;;;;;;13.34;100.00;100884.78;5033994;28;20454;-66
2021/09/14 00:39:27;;;;;;;54.80;28.33;;;;;;;13.50;100.00;100880.31;5029495;28;20045;-65
2021/09/14 00:41:55;;;;;;;55.70;29.10;;;;;;;13.59;100.00;100873.84;5027487;28;20051;-64
2021/09/14 00:44:23;;;;;;;48.15;26.25;;;;;;;13.58;100.00;100864.97;5027290;28;20065;-64
2021/09/14 00:46:51;;;;;;;52.05;26.63;;;;;;;13.48;100.00;100866.25;5030774;28;20049;-65
2021/09/14 00:49:19;;;;;;;56.00;29.58;;;;;;;13.45;100.00;100870.09;5028153;28;20041;-65
2021/09/14 00:51:48;;;;;;;60.53;28.02;;;;;;;13.47;100.00;100867.25;5034094;28;20041;-65
2021/09/14 00:54:17;;;;;;;58.35;29.08;;;;;;;13.46;100.00;100861.06;5031639;28;20390;-65
2021/09/14 00:56:45;;;;;;;57.55;29.08;;;;;;;13.42;100.00;100857.06;5030170;28;20128;-65
2021/09/14 00:59:13;;;;;;;52.65;28.13;;;;;;;13.39;100.00;100852.88;5026659;28;20331;-65
2021/09/14 01:01:41;;;;;;;62.00;30.45;;;;;;;13.33;100.00;100853.59;5027642;28;20049;-66
2021/09/14 01:04:09;;;;;;;64.55;31.50;;;;;;;13.28;100.00;100850.59;5027418;28;20518;-65
2021/09/14 01:06:37;;;;;;;54.80;28.85;;;;;;;13.31;100.00;100847.59;5030799;28;20045;-64
2021/09/14 01:09:07;;;;;;;66.82;32.03;;;;;;;13.28;100.00;100858.66;5028072;28;20353;-65
2021/09/14 01:11:35;;;;;;;56.28;30.23;;;;;;;13.26;100.00;100863.38;5030313;28;20049;-65
2021/09/14 01:14:04;;;;;;;64.65;30.95;;;;;;;13.20;100.00;100846.16;5033249;28;20107;-65
2021/09/14 01:16:33;;;;;;;60.38;30.00;;;;;;;13.24;100.00;100838.56;5033724;28;20082;-65
2021/09/14 01:19:01;;;;;;;61.08;30.20;;;;;;;13.20;100.00;100842.66;5019842;28;20437;-65
2021/09/14 01:21:29;;;;;;;64.63;31.00;;;;;;;13.25;100.00;100850.97;5034260;28;20057;-65
2021/09/14 01:23:59;;;;;;;63.75;30.13;;;;;;;13.15;100.00;100842.34;5026698;28;20100;-65
2021/09/14 01:26:28;;;;;;;64.57;31.95;;;;;;;13.16;100.00;100842.16;5031536;28;20341;-65
2021/09/14 01:28:56;;;;;;;65.65;31.00;;;;;;;13.11;100.00;100844.53;5028709;28;20445;-65
2021/09/14 01:31:24;;;;;;;61.80;31.00;;;;;;;13.09;100.00;100846.56;5030777;28;20041;-66
2021/09/14 01:33:53;;;;;;;64.40;33.45;;;;;;;13.19;100.00;100840.97;5031621;28;20045;-65
2021/09/14 01:36:21;;;;;;;63.92;31.83;;;;;;;13.16;100.00;100841.34;5029453;28;20053;-65
2021/09/14 01:38:49;;;;;;;66.40;32.53;;;;;;;13.15;100.00;100837.81;5027375;28;20052;-65
2021/09/14 01:41:18;;;;;;;67.88;32.13;;;;;;;13.19;100.00;100832.94;5029136;28;20388;-65
2021/09/14 01:43:47;;;;;;;72.72;33.45;;;;;;;13.21;100.00;100830.88;5030698;28;20176;-65
2021/09/14 01:46:15;;;;;;;71.93;32.25;;;;;;;13.30;100.00;100824.47;5027468;28;20380;-65
2021/09/14 01:48:43;;;;;;;66.85;32.78;;;;;;;13.24;100.00;100820.66;5027187;28;20045;-65
2021/09/14 01:51:11;;;;;;;68.03;31.42;;;;;;;13.33;100.00;100828.63;5036267;28;20049;-65
2021/09/14 01:53:39;;;;;;;59.78;31.92;;;;;;;13.32;100.00;100819.72;5030736;28;20404;-65
2021/09/14 01:56:07;;;;;;;63.70;32.10;;;;;;;13.35;100.00;100816.72;5022981;28;20392;-65
2021/09/14 01:58:36;;;;;;;67.10;31.88;;;;;;;13.49;100.00;100815.09;5028621;28;20045;-65
2021/09/14 02:01:09;;;;;;;67.28;32.28;;;;;;;13.50;100.00;100802.53;5028080;28;20041;-65
2021/09/14 02:03:42;;;;;;;62.67;29.67;;;;;;;13.39;100.00;100809.97;5031804;28;20066;-65
2021/09/14 02:40:09;;;;;;;80.25;37.83;;;;;;;12.88;100.00;100802.47;5030978;28;20365;-65
2021/09/14 02:42:53;;;;;;;83.72;36.22;;;;;;;12.84;100.00;100801.19;5026892;28;20053;-65
2021/09/14 02:59:09;;;;;;;72.70;35.47;;;;;;;12.91;100.00;100801.28;5024081;28;20041;-65
2021/09/14 03:01:37;;;;;;;73.75;35.55;;;;;;;12.96;100.00;100804.28;5033319;28;20067;-65
2021/09/14 03:04:09;;;;;;;75.30;36.00;;;;;;;13.00;100.00;100800.22;5024012;28;20080;-65
2021/09/14 03:06:36;;;;;;;80.13;35.72;;;;;;;13.03;100.00;100807.91;5024363;28;20056;-65
2021/09/14 03:09:04;;;;;;;68.22;33.15;;;;;;;13.02;100.00;100803.56;5024899;28;20330;-65
2021/09/14 03:11:32;;;;;;;68.75;35.05;;;;;;;13.06;100.00;100804.88;5028165;28;20050;-65
2021/09/14 03:14:00;;;;;;;65.65;32.80;;;;;;;13.10;100.00;100805.34;5019625;28;20080;-66
2021/09/14 03:16:29;;;;;;;72.05;32.70;;;;;;;13.08;100.00;100805.53;5024006;28;20053;-66
2021/09/14 03:18:57;;;;;;;67.18;32.90;;;;;;;13.05;100.00;100797.84;5017670;28;20041;-65
2021/09/14 03:21:26;;;;;;;71.78;33.13;;;;;;;12.98;100.00;100791.53;5026357;28;20394;-66
2021/09/14 03:23:54;;;;;;;71.60;32.40;;;;;;;13.03;100.00;100794.50;5025823;28;20449;-65
2021/09/14 03:26:22;;;;;;;70.47;33.83;;;;;;;13.01;100.00;100790.34;5024559;28;20112;-65
2021/09/14 03:28:50;;;;;;;67.35;33.38;;;;;;;12.97;100.00;100792.56;5023889;28;20045;-65
2021/09/14 03:31:18;;;;;;;74.95;32.85;;;;;;;12.98;100.00;100804.09;5024727;28;20294;-65
2021/09/14 03:33:46;;;;;;;70.95;31.95;;;;;;;12.97;100.00;100792.56;5021683;28;20091;-66
2021/09/14 03:36:16;;;;;;;62.90;33.20;;;;;;;12.95;100.00;100799.09;5024644;28;20120;-66
2021/09/14 03:38:45;;;;;;;68.10;33.80;;;;;;;12.96;100.00;100788.19;5026153;28;20463;-65
2021/09/14 03:41:13;;;;;;;67.45;31.75;;;;;;;12.88;100.00;100778.34;5022731;28;20046;-65
2021/09/14 03:43:41;;;;;;;68.13;32.72;;;;;;;12.94;100.00;100782.16;5025906;28;20044;-66
2021/09/14 03:46:08;;;;;;;73.90;32.90;;;;;;;12.86;100.00;100779.56;5024765;28;20115;-65
2021/09/14 03:48:36;;;;;;;70.20;34.03;;;;;;;12.78;100.00;100779.63;5023699;28;20045;-65
2021/09/14 03:51:06;;;;;;;79.80;35.53;;;;;;;12.74;100.00;100774.63;5027526;28;20110;-66
2021/09/14 03:53:34;;;;;;;76.70;33.63;;;;;;;12.73;100.00;100778.31;5024808;28;20060;-65
2021/09/14 03:56:05;;;;;;;70.28;33.33;;;;;;;12.72;100.00;100771.28;5021859;28;20041;-65
2021/09/14 03:58:33;;;;;;;70.00;32.65;;;;;;;12.71;100.00;100774.97;5026624;28;20048;-65
2021/09/14 04:01:00;;;;;;;67.80;32.85;;;;;;;12.70;100.00;100773.31;5023670;28;20068;-65
2021/09/14 04:03:38;;;;;;;74.10;33.80;;;;;;;12.69;100.00;100766.28;5031567;28;20072;-65
2021/09/14 04:06:39;;;;;;;72.93;32.92;;;;;;;12.69;100.00;100760.94;5026186;28;20421;-65
2021/09/14 04:09:07;;;;;;;67.68;33.15;;;;;;;12.88;100.00;100753.41;5025001;28;20060;-64
2021/09/14 04:11:36;;;;;;;73.80;32.80;;;;;;;12.94;100.00;100744.66;5028890;28;20315;-64
2021/09/14 04:14:04;;;;;;;75.25;34.88;;;;;;;12.99;100.00;100741.44;5028041;28;20072;-64
2021/09/14 04:16:32;;;;;;;73.70;33.45;;;;;;;12.88;100.00;100740.03;5030464;28;20437;-64
2021/09/14 04:19:00;;;;;;;76.45;32.80;;;;;;;12.86;100.00;100740.19;5028977;28;20045;-64
2021/09/14 04:21:28;;;;;;;66.50;32.88;;;;;;;12.78;100.00;100755.53;5030327;28;20127;-65
2021/09/14 04:23:56;;;;;;;72.32;33.45;;;;;;;12.69;100.00;100750.22;5027832;28;20049;-64
2021/09/14 04:26:23;;;;;;;77.45;33.58;;;;;;;12.63;100.00;100745.59;5026825;28;20038;-64
2021/09/14 04:28:53;;;;;;;79.68;36.30;;;;;;;12.62;100.00;100741.22;5023765;28;20053;-65
2021/09/14 04:31:20;;;;;;;74.32;34.55;;;;;;;12.63;100.00;100734.00;5028015;28;20072;-65
2021/09/14 04:33:48;;;;;;;79.32;32.95;;;;;;;12.54;100.00;100727.88;5029409;28;20377;-65
2021/09/14 04:36:17;;;;;;;74.43;33.75;;;;;;;12.53;100.00;100731.56;5028867;28;20123;-65
2021/09/14 04:38:45;;;;;;;71.28;33.00;;;;;;;12.47;100.00;100734.97;5025882;28;20380;-65
2021/09/14 04:41:13;;;;;;;75.28;33.25;;;;;;;12.50;100.00;100738.13;5024780;28;20042;-65
2021/09/14 04:43:41;;;;;;;78.85;36.03;;;;;;;12.54;100.00;100743.97;5028732;28;20052;-64
2021/09/14 04:46:10;;;;;;;78.70;34.28;;;;;;;12.47;100.00;100740.31;5025243;28;20111;-65
2021/09/14 04:48:38;;;;;;;78.30;35.47;;;;;;;12.43;100.00;100733.66;5025490;28;20053;-64
2021/09/14 04:51:06;;;;;;;79.15;35.92;;;;;;;12.52;100.00;100738.78;5030421;28;20444;-67
2021/09/14 04:53:33;;;;;;;81.53;33.72;;;;;;;12.44;100.00;100735.31;5032597;28;20045;-66
2021/09/14 04:56:01;;;;;;;76.05;36.22;;;;;;;12.46;100.00;100731.47;5028789;28;20128;-66
2021/09/14 04:58:33;;;;;;;78.50;35.13;;;;;;;12.51;100.00;100730.91;5021910;28;20119;-66
2021/09/14 05:01:00;;;;;;;74.78;34.67;;;;;;;12.43;100.00;100725.63;5025398;28;20058;-66
2021/09/14 05:03:30;;;;;;;77.10;35.47;;;;;;;12.43;100.00;100728.28;5028001;28;20433;-66
2021/09/14 05:05:58;;;;;;;78.47;35.10;;;;;;;12.35;100.00;100724.66;5028365;28;20372;-66
2021/09/14 05:08:26;;;;;;;77.80;36.28;;;;;;;12.35;100.00;100745.25;5019939;28;20464;-66
2021/09/14 05:10:55;;;;;;;77.15;35.35;;;;;;;12.30;100.00;100724.34;5029629;28;20042;-66
2021/09/14 05:13:23;;;;;;;81.38;35.80;;;;;;;12.29;100.00;100725.38;5032043;28;20488;-66
2021/09/14 05:15:51;;;;;;;83.75;36.15;;;;;;;12.33;100.00;100726.69;5028995;28;20354;-66
2021/09/14 05:18:19;;;;;;;81.50;37.97;;;;;;;12.37;100.00;100727.16;5029053;28;20033;-66
2021/09/14 05:20:50;;;;;;;80.90;36.90;;;;;;;12.39;100.00;100734.00;5029170;28;20057;-66
2021/09/14 05:23:23;;;;;;;83.35;35.72;;;;;;;12.38;100.00;100726.97;5021027;28;20616;-66
2021/09/14 05:25:51;;;;;;;83.68;37.35;;;;;;;12.62;100.00;100711.75;5026058;28;20046;-66
2021/09/14 05:28:19;;;;;;;73.13;33.05;;;;;;;12.58;100.00;100710.44;5024381;28;20041;-66
2021/09/14 05:30:48;;;;;;;72.50;33.35;;;;;;;12.65;100.00;100694.50;5026164;28;20045;-65
2021/09/14 05:33:16;;;;;;;82.93;35.33;;;;;;;12.73;100.00;100692.56;5023288;28;20445;-66
2021/09/14 05:35:45;;;;;;;72.18;33.28;;;;;;;12.78;100.00;100685.84;5024263;28;20072;-66
2021/09/14 05:38:17;;;;;;;66.95;32.03;;;;;;;12.88;100.00;100683.75;5030517;28;20417;-65
2021/09/14 05:40:45;;;;;;;67.50;33.35;;;;;;;12.96;100.00;100686.34;5028091;28;20315;-66
2021/09/14 05:43:13;;;;;;;65.25;30.88;;;;;;;13.00;100.00;100682.28;5029852;28;20054;-66
2021/09/14 05:45:40;;;;;;;66.85;31.70;;;;;;;13.01;100.00;100694.69;5026629;28;20061;-66
2021/09/14 05:48:08;;;;;;;66.05;30.80;;;;;;;13.15;100.00;100693.03;5027878;28;20053;-66
2021/09/14 05:50:36;;;;;;;63.00;29.85;;;;;;;13.21;100.00;100707.53;5026038;28;20045;-66
2021/09/14 05:53:04;;;;;;;64.78;30.17;;;;;;;13.40;100.00;100701.69;5031427;28;20041;-67
2021/09/14 05:55:35;;;;;;;60.95;29.35;;;;;;;13.56;100.00;100689.09;5031759;28;20120;-67
2021/09/14 05:58:05;;;;;;;54.72;28.67;;;;;;;13.73;100.00;100695.09;5025112;28;20315;-66
2021/09/14 06:00:34;;;;;;;51.75;26.33;;;;;;;13.77;100.00;100693.72;5027458;28;20053;-67
2021/09/14 06:03:02;;;;;;;50.78;26.67;;;;;;;13.99;100.00;100685.72;5029694;28;20046;-66
2021/09/14 06:05:30;;;;;;;49.25;25.17;;;;;;;13.66;100.00;100686.97;5027481;28;20045;-66
2021/09/14 06:07:58;;;;;;;47.58;25.65;;;;;;;13.69;100.00;100683.06;5029388;28;20060;-66
2021/09/14 06:10:25;;;;;;;52.72;25.40;;;;;;;14.26;100.00;100676.09;5024497;28;20041;-66
2021/09/14 06:12:55;;;;;;;43.60;23.60;;;;;;;14.26;100.00;100665.34;5028696;28;20118;-66
2021/09/14 06:15:23;;;;;;;45.60;23.65;;;;;;;14.01;100.00;100652.28;5025679;28;20045;-66
2021/09/14 06:17:52;;;;;;;49.92;24.98;;;;;;;13.96;100.00;100652.00;5027336;28;20053;-66
2021/09/14 06:20:20;;;;;;;44.90;23.60;;;;;;;14.21;100.00;100641.75;5028510;28;20045;-66
2021/09/14 06:22:48;;;;;;;50.67;25.80;;;;;;;14.45;100.00;100645.91;5031675;28;20060;-66
2021/09/14 06:25:16;;;;;;;40.08;22.77;;;;;;;14.63;100.00;100642.78;5024926;28;20057;-67
2021/09/14 06:27:44;;;;;;;38.90;21.77;;;;;;;14.76;100.00;100646.63;5026439;28;20049;-66
2021/09/14 06:30:14;;;;;;;43.78;24.00;;;;;;;14.74;100.00;100646.81;5024724;28;20377;-66
2021/09/14 06:32:42;;;;;;;39.28;21.85;;;;;;;14.58;100.00;100647.88;5026291;28;20048;-66
2021/09/14 06:35:10;;;;;;;37.50;21.10;;;;;;;14.51;100.00;100640.78;5027263;28;20107;-65
2021/09/14 06:37:39;;;;;;;40.53;21.50;;;;;;;14.41;100.00;100647.31;5031008;28;20426;-66
2021/09/14 06:40:07;;;;;;;39.13;20.63;;;;;;;14.35;100.00;100653.47;5024797;28;20388;-66
2021/09/14 06:42:35;;;;;;;45.50;23.23;;;;;;;14.34;100.00;100654.47;5022586;28;20053;-65
2021/09/14 06:45:03;;;;;;;40.10;21.92;;;;;;;14.30;100.00;100658.56;5024066;28;20041;-65
2021/09/14 06:47:33;;;;;;;37.45;21.63;;;;;;;14.40;100.00;100661.78;5029986;28;20088;-66
2021/09/14 06:50:01;;;;;;;44.40;23.58;;;;;;;14.43;100.00;100663.22;5025165;28;20128;-66
2021/09/14 06:52:38;;;;;;;38.30;22.17;;;;;;;14.47;100.00;100656.44;5025372;28;20089;-66
2021/09/14 06:55:06;;;;;;;41.15;24.55;;;;;;;14.48;100.00;100662.69;5030372;28;20595;-66
2021/09/14 06:57:34;;;;;;;39.53;21.77;;;;;;;14.63;100.00;100660.78;5025586;28;20053;-66
2021/09/14 07:00:02;;;;;;;41.20;21.80;;;;;;;14.65;100.00;100658.72;5023031;28;20305;-66
2021/09/14 07:02:30;;;;;;;37.00;21.98;;;;;;;14.67;100.00;100664.72;5029380;28;20041;-66
2021/09/14 07:05:05;;;;;;;41.40;21.38;;;;;;;14.82;100.00;100663.81;5025906;28;20046;-65
2021/09/14 07:07:34;;;;;;;38.80;21.45;;;;;;;15.11;100.00;100669.00;5032157;28;20045;-65
2021/09/14 07:10:03;;;;;;;44.22;21.95;;;;;;;15.14;100.00;100663.22;5026891;28;20132;-66
2021/09/14 07:12:32;;;;;;;40.40;22.48;;;;;;;15.15;100.00;100670.28;5029620;28;20141;-65
2021/09/14 07:15:00;;;;;;;36.10;21.38;;;;;;;15.32;100.00;100675.31;5024352;28;20041;-65
2021/09/14 07:17:28;;;;;;;38.88;23.27;;;;;;;15.41;100.00;100671.47;5027137;28;20440;-66
2021/09/14 07:19:56;;;;;;;38.17;20.92;;;;;;;15.27;100.00;100672.41;5024749;28;20445;-66
2021/09/14 07:22:25;;;;;;;36.85;21.23;;;;;;;15.30;100.00;100678.22;5024404;28;20034;-66
2021/09/14 07:24:53;;;;;;;32.05;19.25;;;;;;;15.38;100.00;100679.09;5023886;28;20041;-66
2021/09/14 07:27:21;;;;;;;35.83;20.25;;;;;;;15.33;100.00;100685.88;5025897;28;20365;-66
2021/09/14 07:29:51;;;;;;;32.80;20.73;;;;;;;15.40;100.00;100682.41;5018089;28;20034;-66
2021/09/14 07:32:19;;;;;;;32.17;20.63;;;;;;;15.40;100.00;100677.84;5020809;28;20042;-66
2021/09/14 07:34:47;;;;;;;35.42;20.63;;;;;;;15.49;100.00;100681.22;5022960;28;20381;-66
2021/09/14 07:37:15;;;;;;;37.03;20.65;;;;;;;15.48;100.00;100676.88;5026676;28;20309;-65
2021/09/14 07:39:45;;;;;;;35.20;20.45;;;;;;;15.39;100.00;100673.50;5028205;28;20048;-65
2021/09/14 07:42:13;;;;;;;34.45;19.80;;;;;;;15.38;100.00;100666.47;5027551;28;20580;-65
2021/09/14 07:44:41;;;;;;;39.03;21.20;;;;;;;15.47;100.00;100673.34;5030764;28;20050;-65
2021/09/14 07:47:09;;;;;;;39.15;20.70;;;;;;;15.61;100.00;100671.56;5029814;28;20498;-65
2021/09/14 07:49:37;;;;;;;33.03;18.00;;;;;;;15.79;100.00;100675.59;5025002;28;20056;-65
2021/09/14 07:52:05;;;;;;;36.95;20.42;;;;;;;15.98;100.00;100671.31;5026348;28;20033;-65
2021/09/14 07:54:33;;;;;;;36.50;20.33;;;;;;;16.19;100.00;100675.72;5025842;28;20120;-65
2021/09/14 07:57:03;;;;;;;32.20;18.77;;;;;;;16.20;100.00;100663.09;5028358;28;20099;-65
2021/09/14 07:59:31;;;;;;;33.67;20.30;;;;;;;15.96;100.00;100659.91;5025986;28;20451;-65
2021/09/14 08:01:59;;;;;;;35.88;19.52;;;;;;;16.09;100.00;100659.97;5032567;28;20053;-65
2021/09/14 08:04:27;;;;;;;33.10;19.80;;;;;;;16.17;100.00;100657.09;5027098;28;20349;-65
2021/09/14 08:06:55;;;;;;;32.92;18.83;;;;;;;16.28;100.00;100652.94;5028230;28;20330;-65
2021/09/14 08:09:25;;;;;;;37.13;19.08;;;;;;;16.72;100.00;100658.78;5028321;28;20045;-65
2021/09/14 08:11:53;;;;;;;32.63;19.35;;;;;;;16.85;100.00;100676.81;5027308;28;20202;-65
2021/09/14 08:14:22;;;;;;;32.10;18.33;;;;;;;17.14;100.00;100678.28;5028455;28;20099;-66
2021/09/14 08:16:51;;;;;;;27.88;18.40;;;;;;;17.40;100.00;100681.97;5029750;28;21112;-65
2021/09/14 08:19:19;;;;;;;30.25;17.42;;;;;;;17.49;100.00;100683.41;5020398;28;20345;-65
2021/09/14 08:21:47;;;;;;;28.70;16.70;;;;;;;17.48;100.00;100684.44;5029879;28;20037;-66
2021/09/14 08:24:15;;;;;;;23.90;15.25;;;;;;;17.47;100.00;100681.94;5029014;28;20041;-65
2021/09/14 08:26:43;;;;;;;30.15;17.67;;;;;;;17.45;100.00;100686.72;5027586;28;20034;-65
2021/09/14 08:29:10;;;;;;;28.92;16.55;;;;;;;17.52;100.00;100701.03;5023546;28;20354;-66
2021/09/14 08:31:40;;;;;;;28.48;17.63;;;;;;;17.66;100.00;100702.66;5029313;28;20432;-66
2021/09/14 08:34:09;;;;;;;25.27;15.40;;;;;;;17.63;100.00;100704.94;5029324;28;20046;-65
2021/09/14 08:36:37;;;;;;;26.23;16.25;;;;;;;17.61;100.00;100712.44;5029088;28;20049;-65
2021/09/14 08:39:05;;;;;;;28.20;16.58;;;;;;;17.60;100.00;100718.88;5027147;28;20050;-65
2021/09/14 08:41:34;;;;;;;26.45;16.13;;;;;;;17.89;100.00;100714.84;5029128;28;20037;-65
2021/09/14 08:44:03;;;;;;;30.98;17.85;;;;;;;17.99;100.00;100717.09;5026136;28;20037;-65
2021/09/14 08:46:34;;;;;;;27.73;16.30;;;;;;;18.01;100.00;100715.03;5030645;28;20308;-65
2021/09/14 08:49:03;;;;;;;31.67;17.10;;;;;;;18.06;100.00;100731.44;5027057;28;20049;-65
2021/09/14 08:51:31;;;;;;;24.48;14.80;;;;;;;18.44;100.00;100721.66;5031189;28;20056;-66
2021/09/14 08:53:59;;;;;;;26.30;15.65;;;;;;;18.97;100.00;100715.88;5031655;28;20418;-65
2021/09/14 08:56:27;;;;;;;25.80;15.65;;;;;;;18.86;100.00;100720.09;5025864;28;20281;-65
2021/09/14 08:58:56;;;;;;;23.05;14.32;;;;;;;18.58;100.00;100713.25;5029613;28;20056;-65
2021/09/14 09:01:24;;;;;;;24.38;14.73;;;;;;;19.00;100.00;100717.31;5028152;28;20348;-65
2021/09/14 09:03:57;;;;;;;21.02;14.27;;;;;;;19.36;100.00;100711.13;5028480;28;20049;-65
2021/09/14 09:06:34;;;;;;;21.67;13.70;;;;;;;19.23;100.00;100708.56;5027463;28;20103;-65
2021/09/14 09:09:14;;;;;;;19.83;13.40;;;;;;;19.54;100.00;100706.78;5026518;28;20121;-65
2021/09/14 09:11:57;;;;;;;21.55;13.00;;;;;;;19.63;100.00;100718.16;5029565;28;20041;-65
2021/09/14 09:14:36;;;;;;;21.10;13.20;;;;;;;19.70;100.00;100711.59;5024540;28;20412;-65
2021/09/14 09:17:06;;;;;;;20.27;13.13;;;;;;;19.46;100.00;100717.91;5029208;28;20052;-65
2021/09/14 09:19:34;;;;;;;21.42;13.18;;;;;;;19.46;100.00;100707.91;5027946;28;20046;-65
2021/09/14 09:22:11;;;;;;;19.42;11.95;;;;;;;19.44;100.00;100713.56;5027314;28;20121;-65
2021/09/14 09:24:46;;;;;;;21.80;11.93;;;;;;;19.36;100.00;100713.03;5014373;28;20049;-65
2021/09/14 09:27:16;;;;;;;19.85;12.38;;;;;;;19.34;100.00;100710.53;5031201;28;20045;-65
2021/09/14 09:29:45;;;;;;;21.73;12.48;;;;;;;19.33;100.00;100705.34;5021110;28;20049;-65
2021/09/14 09:32:13;;;;;;;23.10;12.80;;;;;;;19.38;100.00;100708.22;5027639;28;20760;-66
2021/09/14 09:34:40;;;;;;;19.25;11.93;;;;;;;19.26;100.00;100717.09;5026480;28;20440;-65
2021/09/14 09:37:10;;;;;;;22.63;12.48;;;;;;;19.32;100.00;100709.09;5029493;28;20537;-66
2021/09/14 09:39:42;;;;;;;20.55;11.50;;;;;;;19.34;100.00;100707.84;5030065;28;20045;-66
2021/09/14 09:42:10;;;;;;;16.67;11.65;;;;;;;19.37;100.00;100707.38;5029700;28;20451;-66
2021/09/14 09:44:38;;;;;;;20.08;12.13;;;;;;;19.38;100.00;100709.03;5027230;28;20052;-66
2021/09/14 09:47:06;;;;;;;20.95;11.93;;;;;;;19.19;100.00;100705.47;5026741;28;20049;-65
2021/09/14 09:49:34;;;;;;;22.05;11.88;;;;;;;19.08;100.00;100714.31;5024200;28;20457;-64
2021/09/14 09:52:02;;;;;;;19.05;12.02;;;;;;;18.88;100.00;100704.53;5027260;28;20334;-64
2021/09/14 09:54:32;;;;;;;21.42;12.27;;;;;;;18.82;100.00;100710.75;5029348;28;20273;-65
2021/09/14 09:57:01;;;;;;;17.73;12.18;;;;;;;19.05;100.00;100714.75;5028806;28;20471;-65
2021/09/14 09:59:29;;;;;;;17.55;11.80;;;;;;;19.19;100.00;100708.16;5023839;28;20049;-65
2021/09/14 10:02:06;;;;;;;20.63;12.00;;;;;;;19.42;100.00;100704.00;5034767;28;20056;-65
2021/09/14 10:04:41;;;;;;;17.70;12.10;;;;;;;19.41;100.00;100696.94;5026937;28;20053;-65
2021/09/14 10:07:11;;;;;;;18.30;11.52;;;;;;;19.59;100.00;100698.81;5028287;28;20049;-65
2021/09/14 10:09:51;;;;;;;18.73;12.25;;;;;;;19.91;100.00;100691.38;5023160;28;20068;-65
2021/09/14 10:12:26;;;;;;;17.67;10.90;;;;;;;20.03;100.00;100686.03;5027876;28;20061;-65
2021/09/14 10:15:02;;;;;;;18.67;11.30;;;;;;;19.87;100.00;100681.22;5025269;28;20046;-64
2021/09/14 10:17:31;;;;;;;15.63;11.05;;;;;;;19.85;100.00;100686.06;5030407;28;20049;-65
2021/09/14 10:20:10;;;;;;;20.67;11.23;;;;;;;19.70;100.00;100679.09;5024783;28;20038;-65
2021/09/14 10:22:38;;;;;;;19.63;11.45;;;;;;;19.91;100.00;100677.00;5028525;28;20401;-65
2021/09/14 10:25:11;;;;;;;18.00;10.30;;;;;;;19.87;100.00;100676.63;5025372;28;20111;-64
2021/09/14 10:27:40;;;;;;;17.20;10.43;;;;;;;19.96;100.00;100679.88;5030251;28;20046;-64
2021/09/14 10:30:10;;;;;;;17.60;10.32;;;;;;;19.70;100.00;100680.97;5023695;28;20076;-65
2021/09/14 10:32:40;;;;;;;19.83;10.63;;;;;;;20.09;100.00;100676.97;5025121;28;20045;-65
2021/09/14 10:35:09;;;;;;;16.95;10.10;;;;;;;20.33;100.00;100678.91;5033253;28;20114;-65
2021/09/14 10:37:38;;;;;;;16.48;10.23;;;;;;;20.38;100.00;100679.06;5029184;28;20049;-65
2021/09/14 10:40:15;;;;;;;19.98;10.75;;;;;;;20.17;100.00;100667.66;5027809;28;20049;-65
2021/09/14 10:42:44;;;;;;;18.52;11.13;;;;;;;20.20;100.00;100669.09;5029061;28;20049;-65
2021/09/14 10:45:14;;;;;;;18.15;10.65;;;;;;;20.45;100.00;100666.22;5025627;28;20052;-65
2021/09/14 10:47:45;;;;;;;17.88;10.65;;;;;;;20.57;100.00;100660.81;5032377;28;20037;-65
2021/09/14 10:50:23;;;;;;;21.35;10.23;;;;;;;20.58;100.00;100657.88;5022307;28;20053;-65
2021/09/14 10:52:57;;;;;;;18.05;9.55;;;;;;;20.61;100.00;100657.41;5028122;28;20057;-64
2021/09/14 10:55:27;;;;;;;19.23;10.67;;;;;;;20.61;100.00;100645.72;5028638;28;20049;-65
2021/09/14 10:57:58;;;;;;;14.48;9.40;;;;;;;20.57;100.00;100647.25;5027588;28;20037;-63
2021/09/14 11:00:29;;;;;;;18.48;9.25;;;;;;;20.38;100.00;100646.50;5026741;28;20045;-65
2021/09/14 11:02:57;;;;;;;16.25;9.02;;;;;;;20.39;100.00;100653.59;5028941;28;20038;-65
2021/09/14 11:05:27;;;;;;;12.73;8.55;;;;;;;20.45;100.00;100641.81;5031677;28;20042;-64
2021/09/14 11:07:58;;;;;;;14.23;8.95;;;;;;;20.47;100.00;100640.53;5027506;28;20144;-65
2021/09/14 11:10:32;;;;;;;19.20;9.18;;;;;;;20.49;100.00;100636.75;5025049;28;20053;-65
2021/09/14 11:13:00;;;;;;;16.60;9.35;;;;;;;20.50;100.00;100651.94;5004128;28;20050;-65
2021/09/14 11:15:28;;;;;;;11.20;7.78;;;;;;;20.63;100.00;100649.03;5026751;28;20095;-65
2021/09/14 11:17:57;;;;;;;16.40;8.88;;;;;;;20.38;100.00;100641.91;5029248;28;20045;-65
2021/09/14 11:20:29;;;;;;;13.13;8.75;;;;;;;20.45;100.00;100653.47;5028655;28;20437;-65
2021/09/14 11:22:59;;;;;;;12.43;8.52;;;;;;;20.57;100.00;100661.66;5028025;28;20042;-65
2021/09/14 11:25:30;;;;;;;13.45;7.70;;;;;;;20.00;100.00;100664.78;5033960;28;20359;-65
2021/09/14 11:27:59;;;;;;;13.73;8.45;;;;;;;20.33;100.00;100678.91;5028862;28;20389;-65
2021/09/14 11:30:28;;;;;;;16.63;7.95;;;;;;;20.89;100.00;100669.47;5021101;28;20053;-66
2021/09/14 11:32:56;;;;;;;13.23;8.15;;;;;;;21.24;100.00;100660.50;5028193;28;20038;-65
2021/09/14 11:35:24;;;;;;;11.48;7.78;;;;;;;21.50;100.00;100661.06;5025876;28;20177;-65
2021/09/14 11:38:00;;;;;;;12.45;7.80;;;;;;;21.61;100.00;100665.66;5025970;28;20442;-65
2021/09/14 11:40:32;;;;;;;11.73;7.07;;;;;;;21.97;100.00;100658.22;5024831;28;20056;-65
2021/09/14 11:43:00;;;;;;;8.40;6.07;;;;;;;23.19;100.00;100655.09;5025114;28;20052;-65
2021/09/14 11:45:31;;;;;;;10.07;6.72;;;;;;;23.78;100.00;100648.19;5024040;28;20041;-65
2021/09/14 11:48:01;;;;;;;10.95;6.68;;;;;;;24.84;100.00;100637.72;5006145;28;20042;-66
2021/09/14 11:50:38;;;;;;;10.85;7.25;;;;;;;25.47;100.00;100638.91;5023275;28;20099;-65
2021/09/14 11:53:07;;;;;;;9.60;6.90;;;;;;;25.01;100.00;100625.81;5026070;28;20045;-65
2021/09/14 11:55:40;;;;;;;9.05;6.35;;;;;;;23.54;100.00;100625.84;5025605;28;20448;-65
2021/09/14 11:58:09;;;;;;;8.27;5.60;;;;;;;23.18;100.00;100614.50;5022785;28;20041;-65
2021/09/14 12:00:39;;;;;;;8.50;6.25;;;;;;;24.64;100.00;100608.38;5023711;28;20121;-65